SondeTracker

Meteorological Radiosondes Database

Operations

Sounding was ended - last measurement: 2022-12-07 09:16:02z

MAP
About Radiosonde

Number: U2750211

Launch Site: Eskmeals (GB)

Type: RS41

AUX: NO

Frequency: 405.10 MHz

Max Speed: 81 km/h at 22117 m

Average Speed: 49.42 km/h

Max Altitude: 22117 m

Average Ascent Speed: 4.08 m/s

Average Descent Speed: 9.62 m/s

Status: UNKNOWN

Status Changes
Launch Site Type AUX Frequency Status Finder Landing Point Description Changes made by
APRS Statistics

Received Frames: 315

First Frame [UTC]: 2022-12-07 07:17:24z

Last Frame [UTC]: 2022-12-07 09:16:02z

Receivers: F5RZC-11, F5RZC-14, G4VFL-14, GB3EI-15, GURGE2-15, M1CJE-11

Flight Time: 01:58:38 h

Distance From First Measurement: 93.03 km

Nearest City: Skelmersdale (GB) [3.07 km]

Nearest Hunter: 2E0BBN [18.84 km]

Ground Altitude: 69 m

Distance from QTH: 0.00 km

APRS Data
Receiver Number Date/Time [UTC] φ λ Course [°] Speed [km/h] Altitude [m] Description
G4VFL-14U27502112022-12-07 09:16:0253.5513-2.82239156413622Clb=-5.8m/s t=-13.0C h=64.1% 405.10MHz Type=RS41-SG batt=2.6V Details on http://radiosondy.info
G4VFL-14U27502112022-12-07 09:15:4653.5527-2.82361151393713Clb=-6.9m/s t=-13.7C h=61.2% 405.10MHz Type=RS41-SG Details on http://radiosondy.info
G4VFL-14U27502112022-12-07 09:15:3153.554-2.82489149373808Clb=-6.8m/s t=-14.1C h=61.1% 405.10MHz Type=RS41-SG TxOff=7h58m Details on http://radiosondy.info
G4VFL-14U27502112022-12-07 09:15:1553.5552-2.82628146373908Clb=-5.1m/s t=-15.0C h=67.9% 405.10MHz Type=RS41-SG batt=2.5V Details on http://radiosondy.info
G4VFL-14U27502112022-12-07 09:14:5953.5565-2.82767148413993Clb=-4.7m/s t=-15.5C h=62.6% 405.10MHz Type=RS41-SG Details on http://radiosondy.info
G4VFL-14U27502112022-12-07 09:14:4353.5579-2.82928144444075Clb=-5.0m/s t=-15.9C h=54.2% 405.10MHz Type=RS41-SG Details on http://radiosondy.info
G4VFL-14U27502112022-12-07 09:14:2753.5593-2.83104142444172Clb=-7.6m/s t=-16.5C h=57.9% 405.10MHz Type=RS41-SG batt=2.6V Details on http://radiosondy.info
G4VFL-14U27502112022-12-07 09:13:1653.5661-2.8394140504709Clb=-7.5m/s t=-19.6C h=70.8% 405.10MHz Type=RS41-SG Details on http://radiosondy.info
G4VFL-14U27502112022-12-07 09:13:0053.5677-2.84149138484833Clb=-8.1m/s t=-20.4C h=72.6% 405.10MHz Type=RS41-SG Details on http://radiosondy.info
G4VFL-14U27502112022-12-07 09:12:4553.5689-2.84368131464950Clb=-8.0m/s t=-20.9C h=73.8% 405.10MHz Type=RS41-SG batt=2.5V Details on http://radiosondy.info
G4VFL-14U27502112022-12-07 09:12:2953.5702-2.84599134485062Clb=-6.0m/s t=-21.4C h=60.7% 405.10MHz Type=RS41-SG Details on http://radiosondy.info
G4VFL-14U27502112022-12-07 09:12:1353.5717-2.84807145465161Clb=-6.9m/s t=-22.0C h=33.5% 405.10MHz Type=RS41-SG Details on http://radiosondy.info
G4VFL-14U27502112022-12-07 09:11:5653.5732-2.85011141445270Clb=-6.2m/s t=-22.8C h=24.1% 405.10MHz Type=RS41-SG batt=2.5V Details on http://radiosondy.info
G4VFL-14U27502112022-12-07 09:11:4153.5745-2.85187143435365Clb=-6.4m/s t=-23.5C h=26.7% 405.10MHz Type=RS41-SG Details on http://radiosondy.info
G4VFL-14U27502112022-12-07 09:11:2553.5759-2.85353146415465Clb=-6.1m/s t=-24.3C h=24.9% 405.10MHz Type=RS41-SG Details on http://radiosondy.info
G4VFL-14U27502112022-12-07 09:10:0253.5826-2.8626144415971Clb=-5.4m/s t=-28.5C h=34.0% 405.10MHz Type=RS41-SG TxOff=8h04m batt=2.6V Details on http://radiosondy.info
G4VFL-14U27502112022-12-07 09:09:4753.5839-2.86391153486059Clb=-6.5m/s t=-29.3C h=38.2% 405.10MHz Type=RS41-SG Details on http://radiosondy.info
G4VFL-14U27502112022-12-07 09:09:3153.5858-2.86502165546155Clb=-5.3m/s t=-28.9C h=26.5% 405.10MHz Type=RS41-SG Details on http://radiosondy.info
G4VFL-14U27502112022-12-07 09:09:1553.5878-2.86605166566254Clb=-6.4m/s t=-29.4C h=36.1% 405.10MHz Type=RS41-SG batt=2.5V Details on http://radiosondy.info
G4VFL-14U27502112022-12-07 09:08:5953.59-2.86693168576348Clb=-6.2m/s t=-29.9C h=25.3% 405.10MHz Type=RS41-SG Details on http://radiosondy.info
G4VFL-14U27502112022-12-07 09:08:4253.5924-2.86785167566443Clb=-5.3m/s t=-30.5C h=16.3% 405.10MHz Type=RS41-SG Details on http://radiosondy.info
G4VFL-14U27502112022-12-07 09:08:2653.5946-2.86873166566535Clb=-6.3m/s t=-31.3C h=16.9% 405.10MHz Type=RS41-SG batt=2.5V Details on http://radiosondy.info
G4VFL-14U27502112022-12-07 09:07:1453.6041-2.87386160507004Clb=-8.1m/s t=-34.4C h=18.0% 405.10MHz Type=RS41-SG Details on http://radiosondy.info
G4VFL-14U27502112022-12-07 09:06:5853.606-2.87496164527125Clb=-7.5m/s t=-35.4C h=19.9% 405.10MHz Type=RS41-SG Details on http://radiosondy.info
G4VFL-14U27502112022-12-07 09:06:4253.608-2.87592167567240Clb=-8.0m/s t=-36.2C h=18.4% 405.10MHz Type=RS41-SG TxOff=8h07m batt=2.5V Details on http://radiosondy.info
G4VFL-14U27502112022-12-07 09:06:2753.61-2.87666169547355Clb=-7.3m/s t=-36.9C h=16.3% 405.10MHz Type=RS41-SG Details on http://radiosondy.info
G4VFL-14U27502112022-12-07 09:06:1153.6121-2.8776163527475Clb=-8.1m/s t=-37.9C h=20.3% 405.10MHz Type=RS41-SG Details on http://radiosondy.info
G4VFL-14U27502112022-12-07 09:05:5653.614-2.87845166547591Clb=-9.2m/s t=-38.8C h=20.9% 405.10MHz Type=RS41-SG batt=2.5V Details on http://radiosondy.info
G4VFL-14U27502112022-12-07 09:05:4053.6161-2.87943164567724Clb=-8.0m/s t=-39.4C h=23.5% 405.10MHz Type=RS41-SG Details on http://radiosondy.info
G4VFL-14U27502112022-12-07 09:05:2553.6181-2.88038165577843Clb=-8.4m/s t=-40.4C h=26.1% 405.10MHz Type=RS41-SG Details on http://radiosondy.info
G4VFL-14U27502112022-12-07 09:04:1653.6269-2.88302173508416Clb=-8.5m/s t=-44.1C h=24.0% 405.10MHz Type=RS41-SG batt=2.6V Details on http://radiosondy.info
G4VFL-14U27502112022-12-07 09:04:0053.6289-2.88347171468556Clb=-9.4m/s t=-45.3C h=20.3% 405.10MHz Type=RS41-SG Details on http://radiosondy.info
G4VFL-14U27502112022-12-07 09:03:4353.6308-2.884168468702Clb=-8.8m/s t=-46.4C h=15.6% 405.10MHz Type=RS41-SG Details on http://radiosondy.info
G4VFL-14U27502112022-12-07 09:03:2753.6326-2.88489160528841Clb=-9.0m/s t=-47.4C h=16.0% 405.10MHz Type=RS41-SG TxOff=8h10m batt=2.6V Details on http://radiosondy.info
G4VFL-14U27502112022-12-07 09:03:1253.6344-2.88602159508975Clb=-9.3m/s t=-47.9C h=17.0% 405.10MHz Type=RS41-SG Details on http://radiosondy.info
G4VFL-14U27502112022-12-07 09:02:5653.6362-2.88736156489116Clb=-8.7m/s t=-48.6C h=18.5% 405.10MHz Type=RS41-SG Details on http://radiosondy.info
G4VFL-14U27502112022-12-07 09:02:4053.6379-2.88872151489261Clb=-9.7m/s t=-49.9C h=20.7% 405.10MHz Type=RS41-SG batt=2.5V Details on http://radiosondy.info
G4VFL-14U27502112022-12-07 09:02:2453.6397-2.89006160569418Clb=-10.0m/s t=-51.3C h=22.6% 405.10MHz Type=RS41-SG Details on http://radiosondy.info
G4VFL-14U27502112022-12-07 09:01:0353.6499-2.897321636710045Clb=-7.3m/s t=-56.4C h=27.8% 405.10MHz Type=RS41-SG Details on http://radiosondy.info
G4VFL-14U27502112022-12-07 09:00:4753.6525-2.898561627010160Clb=-7.1m/s t=-56.9C h=26.9% 405.10MHz Type=RS41-SG batt=2.5V Details on http://radiosondy.info
G4VFL-14U27502112022-12-07 09:00:3153.6552-2.899881657210282Clb=-7.2m/s t=-57.8C h=28.2% 405.10MHz Type=RS41-SG Details on http://radiosondy.info
G4VFL-14U27502112022-12-07 09:00:1653.6578-2.90081747210396Clb=-7.4m/s t=-58.5C h=28.4% 405.10MHz Type=RS41-SG Details on http://radiosondy.info
G4VFL-14U27502112022-12-07 09:00:0053.6607-2.901131776710511Clb=-7.1m/s t=-59.0C h=27.2% 405.10MHz Type=RS41-SG TxOff=8h14m batt=2.5V Details on http://radiosondy.info
G4VFL-14U27502112022-12-07 08:59:4453.6634-2.901571725710641Clb=-7.8m/s t=-60.0C h=26.6% 405.10MHz Type=RS41-SG Details on http://radiosondy.info
G4VFL-14U27502112022-12-07 08:59:2753.6658-2.902251694410774Clb=-7.4m/s t=-59.8C h=22.8% 405.10MHz Type=RS41-SG Details on http://radiosondy.info
G4VFL-14U27502112022-12-07 08:58:0153.6753-2.906391364411504Clb=-8.9m/s t=-60.0C h=14.8% 405.10MHz Type=RS41-SG batt=2.5V Details on http://radiosondy.info
G4VFL-14U27502112022-12-07 08:57:4553.6765-2.908581415911657Clb=-9.1m/s t=-60.9C h=13.6% 405.10MHz Type=RS41-SG Details on http://radiosondy.info
G4VFL-14U27502112022-12-07 08:57:2953.6783-2.911041476111809Clb=-9.4m/s t=-61.5C h=11.5% 405.10MHz Type=RS41-SG Details on http://radiosondy.info
G4VFL-14U27502112022-12-07 08:57:1353.6804-2.913251486511944Clb=-9.1m/s t=-60.5C h=9.5% 405.10MHz Type=RS41-SG batt=2.5V Details on http://radiosondy.info
G4VFL-14U27502112022-12-07 08:56:5753.6826-2.915341536912090Clb=-8.9m/s t=-60.2C h=8.7% 405.10MHz Type=RS41-SG Details on http://radiosondy.info
G4VFL-14U27502112022-12-07 08:56:4053.6851-2.917811476312237Clb=-9.0m/s t=-59.6C h=7.9% 405.10MHz Type=RS41-SG Details on http://radiosondy.info
G4VFL-14U27502112022-12-07 08:56:2553.6871-2.920051496712367Clb=-8.3m/s t=-59.5C h=7.5% 405.10MHz Type=RS41-SG TxOff=8h17m batt=2.5V Details on http://radiosondy.info
G4VFL-14U27502112022-12-07 08:55:1453.6983-2.927111685013024Clb=-11.2m/s t=-58.4C h=5.7% 405.10MHz Type=RS41-SG Details on http://radiosondy.info
G4VFL-14U27502112022-12-07 08:54:5853.7002-2.927951703913191Clb=-10.3m/s t=-59.2C h=6.0% 405.10MHz Type=RS41-SG Details on http://radiosondy.info
G4VFL-14U27502112022-12-07 08:54:4253.7016-2.92891434413359Clb=-11.5m/s t=-58.5C h=5.5% 405.10MHz Type=RS41-SG batt=2.6V Details on http://radiosondy.info
G4VFL-14U27502112022-12-07 08:54:2553.7031-2.930751424813544Clb=-11.1m/s t=-58.9C h=5.8% 405.10MHz Type=RS41-SG Details on http://radiosondy.info
G4VFL-14U27502112022-12-07 08:54:1053.7045-2.932711475413704Clb=-11.1m/s t=-57.8C h=5.4% 405.10MHz Type=RS41-SG Details on http://radiosondy.info
G4VFL-14U27502112022-12-07 08:53:5553.7063-2.934151665413868Clb=-12.2m/s t=-57.4C h=5.1% 405.10MHz Type=RS41-SG batt=2.5V Details on http://radiosondy.info
G4VFL-14U27502112022-12-07 08:53:3953.7084-2.934951654114032Clb=-9.7m/s t=-56.8C h=4.9% 405.10MHz Type=RS41-SG Details on http://radiosondy.info
G4VFL-14U27502112022-12-07 08:53:2453.7098-2.935831513314205Clb=-11.5m/s t=-57.6C h=5.2% 405.10MHz Type=RS41-SG Details on http://radiosondy.info
F5RZC-11U27502112022-12-07 08:52:1553.7159-2.942041383015044Clb=-12.6m/s t=-58.7C h=2.0% p=-1.0hPa 405.100 MHz Type=RS41-SG ser=U2750211 Radiosonde
G4VFL-14U27502112022-12-07 08:52:0053.7161-2.94231423915080Clb=-13.3m/s t=-58.8C h=5.2% 405.10MHz Type=RS41-SG TxOff=8h22m batt=2.6V Details on http://radiosondy.info
G4VFL-14U27502112022-12-07 08:51:4553.7172-2.943851464615256Clb=-12.1m/s t=-59.5C h=5.4% 405.10MHz Type=RS41-SG Details on http://radiosondy.info
F5RZC-11U27502112022-12-07 08:51:4453.7173-2.943951484315268Clb=-10.4m/s t=-59.6C h=2.0% p=-1.0hPa 405.100 MHz Type=RS41-SG ser=U2750211 Radiosonde
G4VFL-14U27502112022-12-07 08:51:2953.7187-2.945711434815436Clb=-10.6m/s t=-59.1C h=5.5% 405.10MHz Type=RS41-SG Details on http://radiosondy.info
F5RZC-14U27502112022-12-07 08:51:1753.7199-2.946991504315570Clb=-12.8m/s calibration 7% Type=RS41 batt=2.6V Details on http://radiosondy.info
F5RZC-11U27502112022-12-07 08:51:1353.7203-2.947341554115621Clb=-13.0m/s t=-58.1C h=1.8% p=-1.0hPa 405.100 MHz Type=RS41-SG ser=U2750211 Radiosonde
G4VFL-14U27502112022-12-07 08:50:5753.7217-2.948051572815820Clb=-12.8m/s t=-58.1C h=5.0% 405.10MHz Type=RS41-SG Details on http://radiosondy.info
F5RZC-11U27502112022-12-07 08:50:4253.7226-2.9491363016025Clb=-14.0m/s t=-57.9C h=1.6% p=-1.0hPa 405.100 MHz Type=RS41-SG ser=U2750211 Radiosonde
G4VFL-14U27502112022-12-07 08:50:4153.7226-2.9491373116025Clb=-14.0m/s t=-57.9C h=4.7% 405.10MHz Type=RS41-SG Details on http://radiosondy.info
G4VFL-14U27502112022-12-07 08:50:2453.7233-2.950911234416215Clb=-11.3m/s t=-58.3C h=4.8% 405.10MHz Type=RS41-SG batt=2.5V Details on http://radiosondy.info
F5RZC-11U27502112022-12-07 08:50:1153.724-2.952781214816371Clb=-13.3m/s t=-58.6C h=1.7% p=-1.0hPa 405.100 MHz Type=RS41-SG ser=U2750211 Radiosonde
F5RZC-11U27502112022-12-07 08:49:4053.7264-2.956471464616753Clb=-13.4m/s t=-58.3C h=1.6% p=-1.0hPa 405.100 MHz Type=RS41 ser=U2750211 Radiosonde
F5RZC-11U27502112022-12-07 08:49:0953.7289-2.961171304617145Clb=-12.6m/s t=-273.0C h=-1.0% p=-1.0hPa 405.100 MHz Type=RS41 ser=U2750211 Radiosonde
G4VFL-14U27502112022-12-07 08:49:0353.7294-2.961981453917220Clb=-11.9m/s t=-57.8C h=4.8% 405.10MHz Type=RS41-SG Details on http://radiosondy.info
G4VFL-14U27502112022-12-07 08:48:4853.7306-2.96361383317424Clb=-13.8m/s t=-58.3C h=4.7% 405.10MHz Type=RS41-SG Details on http://radiosondy.info
F5RZC-11U27502112022-12-07 08:48:3853.7312-2.964531463517565Clb=-14.7m/s t=-273.0C h=-1.0% p=-1.0hPa 405.100 MHz Type=RS41 ser=U2750211 Radiosonde
G4VFL-14U27502112022-12-07 08:48:3253.7317-2.964971623517645Clb=-13.4m/s t=-59.3C h=5.0% 405.10MHz Type=RS41-SG TxOff=8h25m batt=2.5V Details on http://radiosondy.info
G4VFL-14U27502112022-12-07 08:48:1653.7329-2.966141374117891Clb=-19.0m/s t=-59.8C h=5.0% 405.10MHz Type=RS41-SG Details on http://radiosondy.info
G4VFL-14U27502112022-12-07 08:48:0053.734-2.967971394818190Clb=-17.1m/s t=-60.7C h=5.4% 405.10MHz Type=RS41-SG Details on http://radiosondy.info
G4VFL-14U27502112022-12-07 08:47:4453.7354-2.970151325418455Clb=-14.6m/s t=-61.1C h=5.5% 405.10MHz Type=RS41-SG batt=2.5V Details on http://radiosondy.info
G4VFL-14U27502112022-12-07 08:47:2553.7375-2.972551575218743Clb=-15.5m/s t=-61.4C h=5.7% 405.10MHz Type=RS41-SG Details on http://radiosondy.info
M1CJE-11U27502112022-12-07 08:47:0053.741-2.975921525719138Clb=-12.1m/s t=-61.4C h=1.8% p=-1.0hPa 405.102 MHz Type=RS41-SG Radiosonde auto_rx v1.5.0
GB3EI-15U27502112022-12-07 08:46:3453.7434-2.978551423319509Clb=-16.9m/s t=-61.6C h=1.7% p=-1.0hPa 405.101 MHz Type=RS41-SG ser=U2750211 Radiosonde
M1CJE-11U27502112022-12-07 08:46:3053.7436-2.978841403919559Clb=-17.4m/s t=-61.8C h=1.8% p=-1.0hPa 405.102 MHz Type=RS41-SG Radiosonde auto_rx v1.5.0
GURGE2-15U27502112022-12-07 08:46:1053.7458-2.981861464819952Clb=-16.1m/s t=-62.0C h=1.7% p=-1.0hPa 405.101 MHz Type=RS41-SG ser=U2750211 Radiosonde
GB3EI-15U27502112022-12-07 08:46:0353.746-2.982111434819982Clb=-15.4m/s t=-61.9C h=1.7% p=-1.0hPa 405.101 MHz Type=RS41-SG ser=U2750211 Radiosonde
G4VFL-14U27502112022-12-07 08:46:0053.7461-2.982231434619999Clb=-17.9m/s t=-61.9C h=5.4% 405.10MHz Type=RS41-SG Details on http://radiosondy.info
G4VFL-14U27502112022-12-07 08:45:4453.7475-2.984021424420255Clb=-16.1m/s t=-62.8C h=5.8% 405.10MHz Type=RS41-SG batt=2.6V Details on http://radiosondy.info
GB3EI-15U27502112022-12-07 08:45:3253.7486-2.985351424820442Clb=-17.1m/s t=-62.9C h=1.7% p=-1.0hPa 405.101 MHz Type=RS41-SG ser=U2750211 Radiosonde
G4VFL-14U27502112022-12-07 08:45:2853.749-2.985821465220507Clb=-16.4m/s t=-62.9C h=5.7% 405.10MHz Type=RS41-SG Details on http://radiosondy.info
G4VFL-14U27502112022-12-07 08:45:1253.7506-2.988011475720773Clb=-17.6m/s t=-63.7C h=5.9% 405.10MHz Type=RS41-SG Details on http://radiosondy.info
M1CJE-11U27502112022-12-07 08:45:0053.7521-2.990291326120991Clb=-16.5m/s t=-63.9C h=1.8% p=-1.0hPa 405.102 MHz Type=RS41-SG Radiosonde auto_rx v1.5.0
G4VFL-14U27502112022-12-07 08:44:5653.7523-2.990671356321024Clb=-16.4m/s t=-63.8C h=6.2% 405.10MHz Type=RS41-SG TxPastBurst=8h30m batt=2.5V Details on http://radiosondy.info
G4VFL-14U27502112022-12-07 08:44:4053.7541-2.993681367021306Clb=-15.9m/s t=-63.9C h=6.2% 405.10MHz Type=RS41-SG Details on http://radiosondy.info
GURGE2-15U27502112022-12-07 08:44:3753.7546-2.994271437221358Clb=-19.4m/s t=-63.6C h=1.7% p=-1.0hPa 405.101 MHz Type=RS41-SG ser=U2750211 Radiosonde
M1CJE-11U27502112022-12-07 08:44:3053.7559-2.995761466721522Clb=-19.4m/s t=-63.9C h=1.8% p=-1.0hPa 405.102 MHz Type=RS41-SG Radiosonde auto_rx v1.5.0
G4VFL-14U27502112022-12-07 08:44:2453.7565-2.996351537021590Clb=-16.9m/s t=-63.5C h=6.1% 405.10MHz Type=RS41-SG Details on http://radiosondy.info
M1CJE-11U27502112022-12-07 08:44:0053.761-3.00091518122117Clb=-14.2m/s t=-63.3C h=1.6% p=-1.0hPa 405.102 MHz Type=RS41-SG Radiosonde auto_rx v1.5.0
GB3EI-15U27502112022-12-07 08:43:5953.7605-3.00041498022066Clb=-18.1m/s t=-63.2C h=1.5% p=-1.0hPa 405.101 MHz Type=RS41-SG ser=U2750211 Radiosonde
GB3EI-15U27502112022-12-07 08:43:2853.7658-3.004981497422032Clb=4.6m/s t=-63.0C h=1.7% p=-1.0hPa 405.101 MHz Type=RS41-SG ser=U2750211 Radiosonde
G4VFL-14U27502112022-12-07 08:43:1653.7678-3.006971508021972Clb=5.5m/s t=-62.9C h=5.9% 405.10MHz Type=RS41-SG batt=2.5V Details on http://radiosondy.info
G4VFL-14U27502112022-12-07 08:43:0053.7704-3.009921477621888Clb=6.0m/s t=-63.1C h=5.8% 405.10MHz Type=RS41-SG Details on http://radiosondy.info
GB3EI-15U27502112022-12-07 08:42:5753.7709-3.010441477021872Clb=5.8m/s t=-63.3C h=1.7% p=-1.0hPa 405.101 MHz Type=RS41-SG ser=U2750211 Radiosonde
G4VFL-14U27502112022-12-07 08:42:4453.773-3.012771497221808Clb=5.4m/s t=-63.5C h=6.0% 405.10MHz Type=RS41-SG Details on http://radiosondy.info
M1CJE-11U27502112022-12-07 08:42:3053.7755-3.015171537021726Clb=5.2m/s t=-63.6C h=1.7% p=-1.0hPa 405.102 MHz Type=RS41-SG Radiosonde auto_rx v1.5.0
G4VFL-14U27502112022-12-07 08:42:2853.7754-3.015171547021726Clb=5.1m/s t=-63.5C h=6.0% 405.10MHz Type=RS41-SG batt=2.6V Details on http://radiosondy.info
GB3EI-15U27502112022-12-07 08:42:2653.7757-3.015431556721716Clb=5.8m/s t=-63.6C h=1.7% p=-1.0hPa 405.101 MHz Type=RS41-SG ser=U2750211 Radiosonde
G4VFL-14U27502112022-12-07 08:42:1253.7779-3.017511516921645Clb=4.3m/s t=-63.6C h=5.9% 405.10MHz Type=RS41-SG Details on http://radiosondy.info
M1CJE-11U27502112022-12-07 08:42:0053.7802-3.019991518021562Clb=5.6m/s t=-63.9C h=1.8% p=-1.0hPa 405.102 MHz Type=RS41-SG Radiosonde auto_rx v1.5.0
G4VFL-14U27502112022-12-07 08:41:5653.7802-3.019991527021562Clb=5.5m/s t=-63.8C h=6.0% 405.10MHz Type=RS41-SG Details on http://radiosondy.info
GB3EI-15U27502112022-12-07 08:41:5553.7804-3.020151527621557Clb=4.8m/s t=-63.8C h=1.8% p=-1.0hPa 405.101 MHz Type=RS41-SG ser=U2750211 Radiosonde
G4VFL-14U27502112022-12-07 08:41:4053.7826-3.022371487021480Clb=4.1m/s t=-63.9C h=6.3% 405.10MHz Type=RS41-SG TxPastBurst=8h30m batt=2.6V Details on http://radiosondy.info
GURGE2-15U27502112022-12-07 08:41:3153.784-3.024071437221430Clb=5.4m/s t=-63.6C h=1.8% p=-1.0hPa 405.101 MHz Type=RS41-SG ser=U2750211 Radiosonde
M1CJE-11U27502112022-12-07 08:41:3053.7843-3.024441447221420Clb=5.6m/s t=-273.0C h=-1.0% p=-1.0hPa 405.102 MHz Type=RS41-SG Radiosonde auto_rx v1.5.0
GB3EI-15U27502112022-12-07 08:41:2453.7849-3.025131396921401Clb=5.6m/s t=-63.5C h=1.8% p=-1.0hPa 405.101 MHz Type=RS41-SG ser=U2750211 Radiosonde
M1CJE-11U27502112022-12-07 08:41:0053.7881-3.030271416721275Clb=4.8m/s t=-273.0C h=-1.0% p=-1.0hPa 405.102 MHz Type=RS41-SG Radiosonde auto_rx v1.5.0
GURGE2-15U27502112022-12-07 08:40:5953.7881-3.030271416721275Clb=4.8m/s t=-64.0C h=1.8% p=-1.0hPa 405.101 MHz Type=RS41-SG ser=U2750211 Radiosonde
GB3EI-15U27502112022-12-07 08:40:5353.7887-3.031211326521253Clb=4.1m/s t=-64.1C h=1.9% p=-1.0hPa 405.101 MHz Type=RS41-SG ser=U2750211 Radiosonde
M1CJE-11U27502112022-12-07 08:40:3053.7916-3.035641406721135Clb=4.8m/s t=-273.0C h=-1.0% p=-1.0hPa 405.102 MHz Type=RS41-SG Radiosonde auto_rx v1.5.0
GURGE2-15U27502112022-12-07 08:40:2853.7916-3.035641406721135Clb=4.8m/s t=-63.7C h=1.8% p=-1.0hPa 405.101 MHz Type=RS41-SG ser=U2750211 Radiosonde
GB3EI-15U27502112022-12-07 08:40:2253.7924-3.036681396521106Clb=3.8m/s t=-63.6C h=1.8% p=-1.0hPa 405.101 MHz Type=RS41-SG ser=U2750211 Radiosonde
G4VFL-14U27502112022-12-07 08:40:0653.794-3.039691325921035Clb=4.8m/s t=-64.1C h=6.3% 405.10MHz Type=RS41-SG Details on http://radiosondy.info
GURGE2-15U27502112022-12-07 08:39:5753.795-3.041261355920995Clb=3.4m/s t=-64.0C h=-1.0% p=-1.0hPa 405.101 MHz Type=RS41-SG ser=U2750211 Radiosonde
GB3EI-15U27502112022-12-07 08:39:5153.7955-3.042331295720968Clb=4.4m/s t=-64.0C h=1.9% p=-1.0hPa 405.101 MHz Type=RS41-SG ser=U2750211 Radiosonde
G4VFL-14U27502112022-12-07 08:39:5053.7956-3.042521325620964Clb=3.9m/s t=-63.9C h=6.2% 405.10MHz Type=RS41-SG batt=2.6V Details on http://radiosondy.info
G4VFL-14U27502112022-12-07 08:39:3553.7972-3.044781415420897Clb=5.1m/s t=-64.1C h=6.4% 405.10MHz Type=RS41-SG Details on http://radiosondy.info
M1CJE-11U27502112022-12-07 08:39:3053.798-3.045661485420866Clb=4.5m/s t=-273.0C h=-1.0% p=-1.0hPa 405.102 MHz Type=RS41-SG Radiosonde auto_rx v1.5.0
GURGE2-15U27502112022-12-07 08:39:2653.7982-3.04591435020857Clb=5.1m/s t=-64.1C h=-1.0% p=-1.0hPa 405.101 MHz Type=RS41 ser=U2750211 Radiosonde
GB3EI-15U27502112022-12-07 08:39:2053.7988-3.046731455620832Clb=4.0m/s t=-64.1C h=1.9% p=-1.0hPa 405.101 MHz Type=RS41-SG ser=U2750211 Radiosonde
G4VFL-14U27502112022-12-07 08:39:1953.7989-3.046861475220827Clb=5.0m/s t=-64.1C h=6.2% 405.10MHz Type=RS41-SG Details on http://radiosondy.info
G4VFL-14U27502112022-12-07 08:39:0353.8006-3.049031445420756Clb=3.6m/s t=-64.0C h=6.3% 405.10MHz Type=RS41-SG batt=2.6V Details on http://radiosondy.info
M1CJE-11U27502112022-12-07 08:39:0053.8012-3.049651434820736Clb=5.3m/s t=-273.0C h=-1.0% p=-1.0hPa 405.102 MHz Type=RS41-SG Radiosonde auto_rx v1.5.0
GB3EI-15U27502112022-12-07 08:38:4953.8022-3.051021465020692Clb=3.6m/s t=-63.7C h=1.9% p=-1.0hPa 405.101 MHz Type=RS41-SG ser=U2750211 Radiosonde
G4VFL-14U27502112022-12-07 08:38:4053.8031-3.052081445020658Clb=4.0m/s t=-63.5C h=6.1% 405.10MHz Type=RS41-SG Details on http://radiosondy.info
G4VFL-14U27502112022-12-07 08:38:2553.8046-3.05391475020592Clb=4.2m/s t=-63.4C h=6.1% 405.10MHz Type=RS41-SG Details on http://radiosondy.info
GB3EI-15U27502112022-12-07 08:38:1853.8054-3.054681495420561Clb=4.8m/s t=-63.3C h=1.8% p=-1.0hPa 405.101 MHz Type=RS41-SG ser=U2750211 Radiosonde
M1CJE-11U27502112022-12-07 08:38:0053.8075-3.056891525020475Clb=4.6m/s t=-273.0C h=-1.0% p=-1.0hPa 405.102 MHz Type=RS41-SG Radiosonde auto_rx v1.5.0
GURGE2-15U27502112022-12-07 08:37:5353.8092-3.058381463920399Clb=4.1m/s t=-273.0C h=-1.0% p=-1.0hPa 405.101 MHz Type=RS41 ser=U2750211 Radiosonde
M1CJE-11U27502112022-12-07 08:37:3053.8107-3.059931513520313Clb=5.6m/s t=-273.0C h=-1.0% p=-1.0hPa 405.102 MHz Type=RS41-SG Radiosonde auto_rx v1.5.0
GURGE2-15U27502112022-12-07 08:37:2253.8108-3.060061553720303Clb=4.3m/s t=-273.0C h=-1.0% p=-1.0hPa 405.101 MHz Type=RS41 ser=U2750211 Radiosonde
M1CJE-11U27502112022-12-07 08:37:0053.8131-3.062321535420190Clb=4.1m/s t=-273.0C h=-1.0% p=-1.0hPa 405.102 MHz Type=RS41-SG Radiosonde auto_rx v1.5.0
GURGE2-15U27502112022-12-07 08:36:5153.8142-3.063431495020139Clb=5.8m/s t=-273.0C h=-1.0% p=-1.0hPa 405.101 MHz Type=RS41 ser=U2750211 Radiosonde
G4VFL-14U27502112022-12-07 08:36:3253.8159-3.065231455020056Clb=5.0m/s t=-62.3C h=5.8% 405.10MHz Type=RS41-SG TxPastBurst=8h30m batt=2.7V Details on http://radiosondy.info
M1CJE-11U27502112022-12-07 08:36:3053.8164-3.065711455020035Clb=6.1m/s t=-273.0C h=-1.0% p=-1.0hPa 405.102 MHz Type=RS41-SG Radiosonde auto_rx v1.5.0
G4VFL-14U27502112022-12-07 08:36:1453.8179-3.067221464619962Clb=4.6m/s t=-62.1C h=5.8% 405.10MHz Type=RS41-SG Details on http://radiosondy.info
G4VFL-14U27502112022-12-07 08:35:5853.8195-3.068741484819877Clb=5.8m/s t=-62.1C h=5.8% 405.10MHz Type=RS41-SG Details on http://radiosondy.info
GB3EI-15U27502112022-12-07 08:35:4353.8211-3.070541374619792Clb=5.1m/s t=-61.8C h=1.7% p=-1.0hPa 405.101 MHz Type=RS41-SG ser=U2750211 Radiosonde
G4VFL-14U27502112022-12-07 08:35:4253.8211-3.070541384819792Clb=5.0m/s t=-61.8C h=5.5% 405.10MHz Type=RS41-SG batt=2.6V Details on http://radiosondy.info
G4VFL-14U27502112022-12-07 08:35:2553.8226-3.072661394619703Clb=4.5m/s t=-62.4C h=5.7% 405.10MHz Type=RS41-SG Details on http://radiosondy.info
GB3EI-15U27502112022-12-07 08:35:1153.8238-3.074421394419632Clb=4.7m/s t=-62.0C h=1.7% p=-1.0hPa 405.101 MHz Type=RS41-SG ser=U2750211 Radiosonde
GB3EI-15U27502112022-12-07 08:34:4053.8263-3.077651493319476Clb=4.6m/s t=-61.4C h=-1.0% p=-1.0hPa 405.101 MHz Type=RS41-SG ser=U2750211 Radiosonde
G4VFL-14U27502112022-12-07 08:34:1453.8281-3.07961443919360Clb=4.2m/s t=-60.8C h=5.3% 405.10MHz Type=RS41-SG Details on http://radiosondy.info
GB3EI-15U27502112022-12-07 08:34:0953.8285-3.080011483919338Clb=4.6m/s t=-273.0C h=-1.0% p=-1.0hPa 405.101 MHz Type=RS41-SG ser=U2750211 Radiosonde
G4VFL-14U27502112022-12-07 08:33:5853.8295-3.081051554619288Clb=4.2m/s t=-61.1C h=5.2% 405.10MHz Type=RS41-SG batt=2.6V Details on http://radiosondy.info
G4VFL-14U27502112022-12-07 08:33:4353.831-3.082441505619226Clb=4.3m/s t=-61.6C h=5.6% 405.10MHz Type=RS41-SG Details on http://radiosondy.info
G4VFL-14U27502112022-12-07 08:33:2753.833-3.084281505719162Clb=3.5m/s t=-61.4C h=5.6% 405.10MHz Type=RS41-SG Details on http://radiosondy.info
G4VFL-14U27502112022-12-07 08:33:1253.8349-3.086161476319103Clb=3.6m/s t=-61.0C h=5.2% 405.10MHz Type=RS41-SG TxPastBurst=8h30m batt=2.6V Details on http://radiosondy.info
G4VFL-14U27502112022-12-07 08:32:5653.837-3.088471476319041Clb=3.5m/s t=-61.2C h=5.5% 405.10MHz Type=RS41-SG Details on http://radiosondy.info
G4VFL-14U27502112022-12-07 08:32:4053.839-3.090931476118975Clb=4.2m/s t=-61.3C h=5.2% 405.10MHz Type=RS41-SG Details on http://radiosondy.info
G4VFL-14U27502112022-12-07 08:32:2453.841-3.093211525618909Clb=4.9m/s t=-62.6C h=5.9% 405.10MHz Type=RS41-SG batt=2.6V Details on http://radiosondy.info
G4VFL-14U27502112022-12-07 08:30:2653.8531-3.109041214118335Clb=3.9m/s t=-61.2C h=5.4% 405.10MHz Type=RS41-SG Details on http://radiosondy.info
G4VFL-14U27502112022-12-07 08:30:1053.8541-3.111181274318259Clb=4.6m/s t=-60.7C h=5.5% 405.10MHz Type=RS41-SG Details on http://radiosondy.info
G4VFL-14U27502112022-12-07 08:29:5453.8551-3.113531264318181Clb=4.2m/s t=-60.2C h=5.3% 405.10MHz Type=RS41-SG batt=2.6V Details on http://radiosondy.info
G4VFL-14U27502112022-12-07 08:29:3953.8561-3.115731283918107Clb=5.7m/s t=-60.2C h=5.1% 405.10MHz Type=RS41-SG Details on http://radiosondy.info
G4VFL-14U27502112022-12-07 08:29:2453.8571-3.117511393918034Clb=4.0m/s t=-60.0C h=5.2% 405.10MHz Type=RS41-SG Details on http://radiosondy.info
G4VFL-14U27502112022-12-07 08:28:1253.8614-3.123591564417685Clb=5.1m/s t=-59.1C h=4.9% 405.10MHz Type=RS41-SG TxPastBurst=8h30m batt=2.7V Details on http://radiosondy.info
G4VFL-14U27502112022-12-07 08:27:5653.863-3.12491514317615Clb=4.5m/s t=-59.1C h=5.0% 405.10MHz Type=RS41-SG Details on http://radiosondy.info
G4VFL-14U27502112022-12-07 08:27:4153.8643-3.126291454117549Clb=3.9m/s t=-59.0C h=4.9% 405.10MHz Type=RS41-SG Details on http://radiosondy.info
GURGE2-15U27502112022-12-07 08:27:3253.8669-3.129791445017414Clb=4.0m/s t=-273.0C h=-1.0% p=-1.0hPa 405.101 MHz Type=RS41-SG ser=U2750211 Radiosonde
GURGE2-15U27502112022-12-07 08:27:0153.8681-3.131231424617367Clb=3.0m/s t=-273.0C h=-1.0% p=-1.0hPa 405.101 MHz Type=RS41-SG ser=U2750211 Radiosonde
GURGE2-15U27502112022-12-07 08:26:3053.8713-3.137081274817209Clb=3.9m/s t=-273.0C h=-1.0% p=-1.0hPa 405.101 MHz Type=RS41-SG ser=U2750211 Radiosonde
GURGE2-15U27502112022-12-07 08:25:5953.8729-3.141021225017107Clb=5.1m/s t=-273.0C h=-1.0% p=-1.0hPa 405.101 MHz Type=RS41 ser=U2750211 Radiosonde
G4VFL-14U27502112022-12-07 08:25:0653.8763-3.147821423316884Clb=3.9m/s t=-58.7C h=5.0% 405.10MHz Type=RS41-SG batt=2.6V Details on http://radiosondy.info
G4VFL-14U27502112022-12-07 08:24:5153.8774-3.148991453316814Clb=5.0m/s t=-59.0C h=5.1% 405.10MHz Type=RS41-SG Details on http://radiosondy.info
G4VFL-14U27502112022-12-07 08:24:3553.8785-3.150181493316744Clb=3.6m/s t=-59.0C h=5.1% 405.10MHz Type=RS41-SG Details on http://radiosondy.info
G4VFL-14U27502112022-12-07 08:24:2053.8796-3.151191513516674Clb=3.5m/s t=-59.1C h=5.2% 405.10MHz Type=RS41-SG batt=2.7V Details on http://radiosondy.info
G4VFL-14U27502112022-12-07 08:24:0553.8807-3.152471414116608Clb=3.9m/s t=-59.4C h=5.0% 405.10MHz Type=RS41-SG Details on http://radiosondy.info
G4VFL-14U27502112022-12-07 08:23:4953.8819-3.154381374116538Clb=4.1m/s t=-59.9C h=5.3% 405.10MHz Type=RS41-SG Details on http://radiosondy.info
G4VFL-14U27502112022-12-07 08:23:3453.8827-3.156481203016470Clb=4.5m/s t=-59.6C h=5.4% 405.10MHz Type=RS41-SG TxPastBurst=8h30m batt=2.6V Details on http://radiosondy.info
G4VFL-14U27502112022-12-07 08:22:0353.8858-3.166551192616047Clb=4.5m/s t=-57.3C h=4.8% 405.10MHz Type=RS41-SG Details on http://radiosondy.info
G4VFL-14U27502112022-12-07 08:21:4753.8865-3.167721492815978Clb=3.7m/s t=-56.9C h=4.7% 405.10MHz Type=RS41-SG Details on http://radiosondy.info
G4VFL-14U27502112022-12-07 08:21:3153.8875-3.168521693015909Clb=4.0m/s t=-56.9C h=4.7% 405.10MHz Type=RS41-SG batt=2.7V Details on http://radiosondy.info
G4VFL-14U27502112022-12-07 08:21:1653.8885-3.16921533315849Clb=4.3m/s t=-57.1C h=4.7% 405.10MHz Type=RS41-SG Details on http://radiosondy.info
G4VFL-14U27502112022-12-07 08:21:0153.8896-3.170141534115788Clb=3.4m/s t=-58.4C h=5.1% 405.10MHz Type=RS41-SG Details on http://radiosondy.info
G4VFL-14U27502112022-12-07 08:20:4553.8912-3.170861654815726Clb=3.0m/s t=-58.6C h=5.2% 405.10MHz Type=RS41-SG batt=2.6V Details on http://radiosondy.info
G4VFL-14U27502112022-12-07 08:20:2853.8931-3.17221574815663Clb=3.3m/s t=-58.8C h=5.3% 405.10MHz Type=RS41-SG Details on http://radiosondy.info
G4VFL-14U27502112022-12-07 08:19:0353.9024-3.182381474415301Clb=4.5m/s t=-60.0C h=5.8% 405.10MHz Type=RS41-SG Details on http://radiosondy.info
G4VFL-14U27502112022-12-07 08:18:4753.9038-3.184121474115227Clb=5.2m/s t=-59.6C h=5.7% 405.10MHz Type=RS41-SG TxPastBurst=8h30m batt=2.6V Details on http://radiosondy.info
G4VFL-14U27502112022-12-07 08:18:2753.9055-3.186071503515137Clb=5.1m/s t=-59.2C h=5.5% 405.10MHz Type=RS41-SG Details on http://radiosondy.info
G4VFL-14U27502112022-12-07 08:18:1153.9067-3.187361463315065Clb=3.6m/s t=-58.8C h=5.4% 405.10MHz Type=RS41-SG Details on http://radiosondy.info
G4VFL-14U27502112022-12-07 08:17:5553.9079-3.188411573314996Clb=4.7m/s t=-58.3C h=5.2% 405.10MHz Type=RS41-SG batt=2.7V Details on http://radiosondy.info
G4VFL-14U27502112022-12-07 08:17:3953.9092-3.189271663314929Clb=3.5m/s t=-58.1C h=5.2% 405.10MHz Type=RS41-SG Details on http://radiosondy.info
G4VFL-14U27502112022-12-07 08:17:2453.9103-3.189981624314868Clb=4.0m/s t=-57.8C h=5.2% 405.10MHz Type=RS41-SG Details on http://radiosondy.info
G4VFL-14U27502112022-12-07 08:16:0153.9186-3.194721564314540Clb=3.0m/s t=-58.0C h=5.1% 405.10MHz Type=RS41-SG batt=2.6V Details on http://radiosondy.info
G4VFL-14U27502112022-12-07 08:15:4553.9201-3.19591503714477Clb=4.5m/s t=-57.9C h=5.2% 405.10MHz Type=RS41-SG Details on http://radiosondy.info
G4VFL-14U27502112022-12-07 08:15:3053.9212-3.19731353314411Clb=4.6m/s t=-57.5C h=5.2% 405.10MHz Type=RS41-SG Details on http://radiosondy.info
G4VFL-14U27502112022-12-07 08:15:1453.9221-3.198881373314346Clb=3.7m/s t=-57.4C h=5.1% 405.10MHz Type=RS41-SG TxPastBurst=8h30m batt=2.7V Details on http://radiosondy.info
G4VFL-14U27502112022-12-07 08:14:3053.9253-3.201951604114159Clb=3.0m/s t=-57.4C h=5.2% 405.10MHz Type=RS41-SG Details on http://radiosondy.info
G4VFL-14U27502112022-12-07 08:09:5753.951-3.221795213018Clb=3.5m/s t=-57.5C h=5.9% 405.10MHz Type=RS41-SG Details on http://radiosondy.info
G4VFL-14U27502112022-12-07 08:09:0653.9576-3.222321626112819Clb=3.6m/s t=-56.8C h=5.9% 405.10MHz Type=RS41-SG batt=2.7V Details on http://radiosondy.info
G4VFL-14U27502112022-12-07 08:06:1453.9849-3.243271526512198Clb=4.1m/s t=-59.2C h=10.7% 405.10MHz Type=RS41-SG Details on http://radiosondy.info
G4VFL-14U27502112022-12-07 08:05:5853.9872-3.245411496912127Clb=5.0m/s t=-60.5C h=12.6% 405.10MHz Type=RS41-SG Details on http://radiosondy.info
G4VFL-14U27502112022-12-07 08:05:4253.9896-3.247681526712057Clb=4.8m/s t=-60.1C h=13.5% 405.10MHz Type=RS41-SG batt=2.6V Details on http://radiosondy.info
G4VFL-14U27502112022-12-07 08:05:2653.992-3.249751525711989Clb=4.0m/s t=-59.9C h=14.5% 405.10MHz Type=RS41-SG Details on http://radiosondy.info
G4VFL-14U27502112022-12-07 08:03:5054.0028-3.262711404311579Clb=4.6m/s t=-60.2C h=19.3% 405.10MHz Type=RS41-SG Details on http://radiosondy.info
G4VFL-14U27502112022-12-07 08:03:3554.004-3.264471444611514Clb=3.9m/s t=-59.9C h=19.7% 405.10MHz Type=RS41-SG TxPastBurst=8h30m batt=2.6V Details on http://radiosondy.info
G4VFL-14U27502112022-12-07 08:02:5154.0081-3.267341755211303Clb=6.6m/s t=-60.8C h=25.0% 405.10MHz Type=RS41-SG Details on http://radiosondy.info
G4VFL-14U27502112022-12-07 08:02:3654.0101-3.267321795611242Clb=2.7m/s t=-60.9C h=26.5% 405.10MHz Type=RS41-SG Details on http://radiosondy.info
G4VFL-14U27502112022-12-07 08:01:0454.0234-3.269231745710900Clb=3.6m/s t=-61.7C h=35.9% 405.10MHz Type=RS41-SG batt=2.7V Details on http://radiosondy.info
G4VFL-14U27502112022-12-07 08:00:4854.0257-3.269661735910837Clb=3.3m/s t=-61.4C h=38.3% 405.10MHz Type=RS41-SG Details on http://radiosondy.info
G4VFL-14U27502112022-12-07 08:00:3254.028-3.269951796710773Clb=4.3m/s t=-61.2C h=38.2% 405.10MHz Type=RS41-SG Details on http://radiosondy.info
G4VFL-14U27502112022-12-07 08:00:1654.0306-3.270221777010706Clb=3.6m/s t=-61.0C h=37.7% 405.10MHz Type=RS41-SG batt=2.7V Details on http://radiosondy.info
G4VFL-14U27502112022-12-07 08:00:0054.0335-3.270671697010640Clb=4.9m/s t=-60.5C h=34.2% 405.10MHz Type=RS41-SG Details on http://radiosondy.info
G4VFL-14U27502112022-12-07 07:59:4454.0362-3.271581697010570Clb=4.7m/s t=-59.9C h=32.1% 405.10MHz Type=RS41-SG Details on http://radiosondy.info
G4VFL-14U27502112022-12-07 07:59:2854.039-3.272731676910499Clb=5.0m/s t=-59.2C h=30.4% 405.10MHz Type=RS41-SG TxPastBurst=8h30m batt=2.7V Details on http://radiosondy.info
G4VFL-14U27502112022-12-07 07:58:0654.0523-3.279161686310156Clb=4.6m/s t=-57.2C h=28.5% 405.10MHz Type=RS41-SG Details on http://radiosondy.info
G4VFL-14U27502112022-12-07 07:57:5054.0547-3.280181686110090Clb=3.3m/s t=-56.6C h=27.6% 405.10MHz Type=RS41-SG Details on http://radiosondy.info
G4VFL-14U27502112022-12-07 07:57:3254.0573-3.281481626110015Clb=4.9m/s t=-55.9C h=26.6% 405.10MHz Type=RS41-SG batt=2.7V Details on http://radiosondy.info
G4VFL-14U27502112022-12-07 07:57:1654.0596-3.28279160599949Clb=4.5m/s t=-55.3C h=27.6% 405.10MHz Type=RS41-SG Details on http://radiosondy.info
G4VFL-14U27502112022-12-07 07:57:0154.0616-3.2841159549886Clb=4.3m/s t=-55.1C h=26.1% 405.10MHz Type=RS41-SG Details on http://radiosondy.info
G4VFL-14U27502112022-12-07 07:56:4554.0635-3.28564157549823Clb=3.0m/s t=-54.5C h=25.6% 405.10MHz Type=RS41-SG batt=2.7V Details on http://radiosondy.info
G4VFL-14U27502112022-12-07 07:56:2954.0654-3.28721157509759Clb=3.7m/s t=-54.1C h=25.0% 405.10MHz Type=RS41-SG Details on http://radiosondy.info
G4VFL-14U27502112022-12-07 07:55:0154.0755-3.29403160509421Clb=4.0m/s t=-51.3C h=20.7% 405.10MHz Type=RS41-SG Details on http://radiosondy.info
G4VFL-14U27502112022-12-07 07:54:4654.0772-3.29517158489367Clb=4.2m/s t=-50.8C h=19.8% 405.10MHz Type=RS41-SG TxPastBurst=8h30m batt=2.7V Details on http://radiosondy.info
G4VFL-14U27502112022-12-07 07:54:3154.0789-3.2963160489310Clb=2.9m/s t=-50.3C h=19.0% 405.10MHz Type=RS41-SG Details on http://radiosondy.info
G4VFL-14U27502112022-12-07 07:54:1054.0812-3.2979159509234Clb=3.8m/s t=-49.6C h=18.3% 405.10MHz Type=RS41-SG Details on http://radiosondy.info
G4VFL-14U27502112022-12-07 07:53:5454.0831-3.29907155529177Clb=3.6m/s t=-49.2C h=18.0% 405.10MHz Type=RS41-SG batt=2.7V Details on http://radiosondy.info
G4VFL-14U27502112022-12-07 07:53:3854.0849-3.30047156549121Clb=2.8m/s t=-48.8C h=17.9% 405.10MHz Type=RS41-SG Details on http://radiosondy.info
G4VFL-14U27502112022-12-07 07:53:2354.0867-3.30175159549070Clb=3.9m/s t=-48.6C h=18.1% 405.10MHz Type=RS41-SG Details on http://radiosondy.info
G4VFL-14U27502112022-12-07 07:51:5754.0982-3.30749173568776Clb=3.7m/s t=-47.0C h=17.0% 405.10MHz Type=RS41-SG batt=2.7V Details on http://radiosondy.info
G4VFL-14U27502112022-12-07 07:51:4254.1002-3.308177548723Clb=2.5m/s t=-46.6C h=17.8% 405.10MHz Type=RS41-SG Details on http://radiosondy.info
G4VFL-14U27502112022-12-07 07:51:2754.1023-3.30835176578670Clb=4.4m/s t=-46.2C h=20.2% 405.10MHz Type=RS41-SG Details on http://radiosondy.info
G4VFL-14U27502112022-12-07 07:51:1154.1045-3.30863177598612Clb=3.1m/s t=-45.8C h=24.0% 405.10MHz Type=RS41-SG TxPastBurst=8h30m batt=2.7V Details on http://radiosondy.info
G4VFL-14U27502112022-12-07 07:50:5554.1069-3.30887177598556Clb=3.4m/s t=-45.3C h=25.2% 405.10MHz Type=RS41-SG Details on http://radiosondy.info
G4VFL-14U27502112022-12-07 07:50:4054.1091-3.30911176618502Clb=2.8m/s t=-44.8C h=25.2% 405.10MHz Type=RS41-SG Details on http://radiosondy.info
G4VFL-14U27502112022-12-07 07:50:2554.1114-3.3093179598449Clb=3.5m/s t=-44.3C h=24.2% 405.10MHz Type=RS41-SG batt=2.7V Details on http://radiosondy.info
G4VFL-14U27502112022-12-07 07:49:0454.1235-3.3103176548169Clb=4.0m/s t=-43.3C h=37.0% 405.10MHz Type=RS41-SG Details on http://radiosondy.info
G4VFL-14U27502112022-12-07 07:48:4954.1256-3.31068173568117Clb=3.4m/s t=-43.1C h=40.5% 405.10MHz Type=RS41-SG Details on http://radiosondy.info
G4VFL-14U27502112022-12-07 07:48:3454.1276-3.31117170548065Clb=2.9m/s t=-42.7C h=30.3% 405.10MHz Type=RS41-SG batt=2.7V Details on http://radiosondy.info
G4VFL-14U27502112022-12-07 07:48:1754.1299-3.31179170568007Clb=2.7m/s t=-42.1C h=26.5% 405.10MHz Type=RS41-SG Details on http://radiosondy.info
G4VFL-14U27502112022-12-07 07:48:0154.1321-3.31243172567953Clb=2.9m/s t=-41.9C h=25.5% 405.10MHz Type=RS41-SG Details on http://radiosondy.info
G4VFL-14U27502112022-12-07 07:47:4554.1343-3.31281173577898Clb=4.0m/s t=-41.6C h=27.9% 405.10MHz Type=RS41-SG TxPastBurst=8h30m batt=2.7V Details on http://radiosondy.info
G4VFL-14U27502112022-12-07 07:46:1254.1467-3.31737168547559Clb=3.6m/s t=-39.1C h=24.2% 405.10MHz Type=RS41-SG Details on http://radiosondy.info
G4VFL-14U27502112022-12-07 07:45:5654.1487-3.3181169487503Clb=4.0m/s t=-38.7C h=25.4% 405.10MHz Type=RS41-SG Details on http://radiosondy.info
G4VFL-14U27502112022-12-07 07:45:4054.1506-3.31879166467447Clb=4.1m/s t=-38.3C h=24.9% 405.10MHz Type=RS41-SG batt=2.7V Details on http://radiosondy.info
G4VFL-14U27502112022-12-07 07:45:2554.1523-3.31953165467391Clb=3.5m/s t=-37.8C h=24.1% 405.10MHz Type=RS41-SG Details on http://radiosondy.info
G4VFL-14U27502112022-12-07 07:45:1054.1539-3.32037163487336Clb=3.4m/s t=-37.3C h=23.4% 405.10MHz Type=RS41-SG Details on http://radiosondy.info
G4VFL-14U27502112022-12-07 07:44:5554.1557-3.32124164507282Clb=3.5m/s t=-36.8C h=22.0% 405.10MHz Type=RS41-SG batt=2.7V Details on http://radiosondy.info
G4VFL-14U27502112022-12-07 07:44:4054.1575-3.3221166507228Clb=3.0m/s t=-36.4C h=18.0% 405.10MHz Type=RS41-SG Details on http://radiosondy.info
G4VFL-14U27502112022-12-07 07:44:2554.1592-3.32301160487172Clb=3.8m/s t=-35.9C h=15.4% 405.10MHz Type=RS41-SG Details on http://radiosondy.info
G4VFL-14U27502112022-12-07 07:43:0054.1691-3.32934157466849Clb=4.2m/s t=-33.0C h=16.2% 405.10MHz Type=RS41-SG TxPastBurst=8h30m batt=2.7V Details on http://radiosondy.info
G4VFL-14U27502112022-12-07 07:42:4254.171-3.33066159486781Clb=2.9m/s t=-32.5C h=25.5% 405.10MHz Type=RS41-SG Details on http://radiosondy.info
G4VFL-14U27502112022-12-07 07:42:2654.1728-3.33182157486721Clb=4.2m/s t=-32.0C h=30.5% 405.10MHz Type=RS41-SG Details on http://radiosondy.info
G4VFL-14U27502112022-12-07 07:42:1054.1745-3.33305161486659Clb=3.8m/s t=-31.7C h=25.6% 405.10MHz Type=RS41-SG batt=2.7V Details on http://radiosondy.info
G4VFL-14U27502112022-12-07 07:41:5454.1763-3.33406160506598Clb=4.0m/s t=-31.3C h=28.3% 405.10MHz Type=RS41-SG Details on http://radiosondy.info
G4VFL-14U27502112022-12-07 07:41:3954.1781-3.33504165466543Clb=3.7m/s t=-31.0C h=25.7% 405.10MHz Type=RS41-SG Details on http://radiosondy.info
G4VFL-14U27502112022-12-07 07:41:2454.1798-3.33575169466485Clb=4.2m/s t=-30.6C h=24.6% 405.10MHz Type=RS41-SG batt=2.7V Details on http://radiosondy.info
G4VFL-14U27502112022-12-07 07:40:1454.188-3.33851168506227Clb=3.5m/s t=-28.8C h=25.0% 405.10MHz Type=RS41-SG Details on http://radiosondy.info
G4VFL-14U27502112022-12-07 07:39:5854.1899-3.33932165506169Clb=3.2m/s t=-28.5C h=23.6% 405.10MHz Type=RS41-SG Details on http://radiosondy.info
G4VFL-14U27502112022-12-07 07:39:4254.1918-3.34018166506111Clb=4.9m/s t=-28.5C h=26.5% 405.10MHz Type=RS41-SG TxPastBurst=8h30m batt=2.7V Details on http://radiosondy.info
G4VFL-14U27502112022-12-07 07:39:2754.1936-3.34105165466054Clb=2.9m/s t=-28.2C h=29.7% 405.10MHz Type=RS41-SG Details on http://radiosondy.info
G4VFL-14U27502112022-12-07 07:39:1154.1953-3.34192158445993Clb=4.3m/s t=-28.3C h=38.3% 405.10MHz Type=RS41-SG Details on http://radiosondy.info
G4VFL-14U27502112022-12-07 07:38:5554.197-3.34301153445937Clb=3.3m/s t=-28.1C h=42.0% 405.10MHz Type=RS41-SG batt=2.7V Details on http://radiosondy.info
G4VFL-14U27502112022-12-07 07:38:3954.1986-3.34433150375876Clb=6.7m/s t=-27.6C h=41.2% 405.10MHz Type=RS41-SG Details on http://radiosondy.info
G4VFL-14U27502112022-12-07 07:38:2354.1998-3.34561151435808Clb=3.1m/s t=-27.1C h=37.2% 405.10MHz Type=RS41-SG Details on http://radiosondy.info
G4VFL-14U27502112022-12-07 07:36:5954.2076-3.3525158465502Clb=3.8m/s t=-24.3C h=30.2% 405.10MHz Type=RS41-SG batt=2.9V Details on http://radiosondy.info
G4VFL-14U27502112022-12-07 07:36:4354.2092-3.35391154465446Clb=2.8m/s t=-23.9C h=30.7% 405.10MHz Type=RS41-SG Details on http://radiosondy.info
G4VFL-14U27502112022-12-07 07:36:2754.2109-3.35545151465391Clb=3.1m/s t=-23.5C h=31.3% calibration 98% 405.10MHz Type=RS41-SG Details on http://radiosondy.info
G4VFL-14U27502112022-12-07 07:36:1154.2125-3.35693153505335Clb=3.4m/s t=-23.1C h=33.8% calibration 98% 405.10MHz Type=RS41-SG TxPastBurst=8h30m batt=2.9V Details on http://radiosondy.info
G4VFL-14U27502112022-12-07 07:35:5554.2144-3.3584156505279Clb=3.0m/s t=-22.7C h=32.7% calibration 98% 405.10MHz Type=RS41-SG Details on http://radiosondy.info
G4VFL-14U27502112022-12-07 07:35:4054.2161-3.35969155505223Clb=4.8m/s t=-22.5C h=29.0% calibration 98% 405.10MHz Type=RS41-SG Details on http://radiosondy.info
G4VFL-14U27502112022-12-07 07:35:2454.2178-3.36138149485166Clb=3.2m/s t=-22.0C h=31.7% calibration 98% 405.10MHz Type=RS41-SG batt=2.7V Details on http://radiosondy.info
G4VFL-14U27502112022-12-07 07:34:1154.2247-3.36999138464897Clb=4.5m/s t=-20.3C h=71.6% calibration 98% 405.10MHz Type=RS41-SG Details on http://radiosondy.info
G4VFL-14U27502112022-12-07 07:33:5354.2263-3.37226148464837Clb=3.6m/s t=-19.8C h=69.2% calibration 98% 405.10MHz Type=RS41-SG Details on http://radiosondy.info
G4VFL-14U27502112022-12-07 07:33:3754.2277-3.37428147484770Clb=4.7m/s t=-19.6C h=69.3% calibration 98% 405.10MHz Type=RS41-SG batt=2.9V Details on http://radiosondy.info
G4VFL-14U27502112022-12-07 07:33:2154.2293-3.3761152524700Clb=4.5m/s t=-19.8C h=76.1% calibration 98% 405.10MHz Type=RS41-SG Details on http://radiosondy.info
G4VFL-14U27502112022-12-07 07:33:0654.231-3.37786151464648Clb=3.7m/s t=-19.7C h=70.5% calibration 96% 405.10MHz Type=RS41-SG Details on http://radiosondy.info
G4VFL-14U27502112022-12-07 07:32:3954.2337-3.3807153464568Clb=3.2m/s t=-19.1C h=73.6% calibration 96% 405.10MHz Type=RS41-SG TxPastBurst=8h30m batt=2.9V Details on http://radiosondy.info
G4VFL-14U27502112022-12-07 07:32:2354.2353-3.38258149444511Clb=4.2m/s t=-18.5C h=71.5% calibration 96% 405.10MHz Type=RS41-SG Details on http://radiosondy.info
G4VFL-14U27502112022-12-07 07:30:4754.2443-3.39268152464179Clb=2.8m/s t=-16.5C h=77.5% calibration 96% 405.10MHz Type=RS41-SG Details on http://radiosondy.info
G4VFL-14U27502112022-12-07 07:30:3254.2458-3.39413147444127Clb=4.4m/s t=-16.1C h=72.8% calibration 96% 405.10MHz Type=RS41-SG batt=2.9V Details on http://radiosondy.info
G4VFL-14U27502112022-12-07 07:30:1454.2475-3.39601145444062Clb=3.8m/s t=-15.7C h=68.6% calibration 96% 405.10MHz Type=RS41-SG Details on http://radiosondy.info
G4VFL-14U27502112022-12-07 07:29:5954.2488-3.39762144464012Clb=3.7m/s t=-15.4C h=66.6% calibration 92% 405.10MHz Type=RS41 Details on http://radiosondy.info
G4VFL-14U27502112022-12-07 07:29:4254.2504-3.39941148443953Clb=4.8m/s t=-14.9C h=67.1% calibration 90% 405.10MHz Type=RS41 batt=2.9V Details on http://radiosondy.info
G4VFL-14U27502112022-12-07 07:29:2454.2522-3.4011154443883Clb=3.4m/s t=-14.4C h=68.0% calibration 90% 405.10MHz Type=RS41 Details on http://radiosondy.info
G4VFL-14U27502112022-12-07 07:28:0254.2608-3.40801159503583Clb=4.0m/s t=-12.5C h=57.3% calibration 84% 405.10MHz Type=RS41 Details on http://radiosondy.info
G4VFL-14U27502112022-12-07 07:27:4454.2628-3.40943169463523Clb=3.3m/s t=-12.1C h=64.1% calibration 84% 405.10MHz Type=RS41 TxPastBurst=8h30m batt=2.9V Details on http://radiosondy.info
G4VFL-14U27502112022-12-07 07:27:2954.2643-3.41078143483461Clb=2.1m/s t=-11.6C h=62.9% calibration 84% 405.10MHz Type=RS41 Details on http://radiosondy.info
G4VFL-14U27502112022-12-07 07:27:1354.266-3.41199156393392Clb=4.4m/s t=-11.1C h=56.0% calibration 84% 405.10MHz Type=RS41 Details on http://radiosondy.info
G4VFL-14U27502112022-12-07 07:26:5754.2674-3.41318155413315Clb=3.6m/s t=-11.0C h=53.6% calibration 84% 405.10MHz Type=RS41 batt=2.9V Details on http://radiosondy.info
G4VFL-14U27502112022-12-07 07:26:4254.2688-3.41403152413260Clb=3.5m/s t=-10.8C h=53.2% calibration 84% 405.10MHz Type=RS41 Details on http://radiosondy.info
G4VFL-14U27502112022-12-07 07:26:2654.2703-3.41459167313183Clb=4.1m/s t=-10.4C h=49.6% calibration 84% 405.10MHz Type=RS41 Details on http://radiosondy.info
G4VFL-14U27502112022-12-07 07:25:0054.2771-3.41592184352879Clb=3.5m/s t=-9.0C h=42.7% calibration 84% 405.10MHz Type=RS41 batt=2.9V Details on http://radiosondy.info
G4VFL-14U27502112022-12-07 07:24:4454.2785-3.41582183352823Clb=3.3m/s t=-8.8C h=40.4% calibration 84% 405.10MHz Type=RS41 Details on http://radiosondy.info
G4VFL-14U27502112022-12-07 07:24:2854.2799-3.41567192372766Clb=2.4m/s t=-8.6C h=38.6% calibration 84% 405.10MHz Type=RS41 Details on http://radiosondy.info
G4VFL-14U27502112022-12-07 07:24:1354.2812-3.41547185412713Clb=3.1m/s t=-8.5C h=34.9% calibration 84% 405.10MHz Type=RS41 TxPastBurst=8h30m batt=2.9V Details on http://radiosondy.info
G4VFL-14U27502112022-12-07 07:23:5754.2828-3.41529185372662Clb=4.3m/s t=-9.1C h=37.3% calibration 84% 405.10MHz Type=RS41 Details on http://radiosondy.info
G4VFL-14U27502112022-12-07 07:23:3954.2845-3.41502185312600Clb=2.7m/s t=-9.2C h=38.2% calibration 84% 405.10MHz Type=RS41 Details on http://radiosondy.info
G4VFL-14U27502112022-12-07 07:23:2354.2858-3.41478168302548Clb=3.1m/s t=-9.0C h=37.5% calibration 84% 405.10MHz Type=RS41 batt=2.9V Details on http://radiosondy.info
G4VFL-14U27502112022-12-07 07:22:1354.2897-3.41429188172257Clb=4.1m/s t=-8.3C h=33.4% calibration 84% 405.10MHz Type=RS41 Details on http://radiosondy.info
G4VFL-14U27502112022-12-07 07:21:5854.2903-3.41379201262195Clb=5.3m/s t=-7.9C h=34.1% calibration 84% 405.10MHz Type=RS41 Details on http://radiosondy.info
G4VFL-14U27502112022-12-07 07:21:4354.2912-3.41304215282129Clb=4.7m/s t=-8.4C h=42.1% calibration 84% 405.10MHz Type=RS41 batt=2.9V Details on http://radiosondy.info
G4VFL-14U27502112022-12-07 07:21:2854.2921-3.41202215332078Clb=3.7m/s t=-10.0C h=67.9% calibration 80% 405.10MHz Type=RS41 Details on http://radiosondy.info
G4VFL-14U27502112022-12-07 07:21:1254.2934-3.41101205392016Clb=3.5m/s t=-10.1C h=78.0% calibration 80% 405.10MHz Type=RS41 Details on http://radiosondy.info
G4VFL-14U27502112022-12-07 07:20:5554.2949-3.41048175371946Clb=3.5m/s t=-11.1C calibration 80% 405.10MHz Type=RS41 TxPastBurst=8h30m batt=2.9V Details on http://radiosondy.info
G4VFL-14U27502112022-12-07 07:20:3954.2963-3.41051192371869Clb=6.4m/s t=-10.4C h=98.5% calibration 80% 405.10MHz Type=RS41 Details on http://radiosondy.info
G4VFL-14U27502112022-12-07 07:20:2454.2977-3.41062183371793Clb=5.4m/s t=-9.6C calibration 78% 405.10MHz Type=RS41 Details on http://radiosondy.info
G4VFL-14U27502112022-12-07 07:19:0354.3048-3.41228174241377Clb=4.1m/s t=-5.7C calibration 74% 405.10MHz Type=RS41 batt=2.9V Details on http://radiosondy.info
G4VFL-14U27502112022-12-07 07:18:4754.3057-3.41246166331305Clb=4.2m/s t=-5.1C calibration 74% 405.10MHz Type=RS41 Details on http://radiosondy.info
G4VFL-14U27502112022-12-07 07:18:3254.3069-3.41269197351237Clb=3.5m/s calibration 68% 405.10MHz Type=RS41 Details on http://radiosondy.info
G4VFL-14U27502112022-12-07 07:18:1454.3085-3.41236186351159Clb=4.0m/s calibration 50% 405.10MHz Type=RS41 batt=2.9V Details on http://radiosondy.info
G4VFL-14U27502112022-12-07 07:17:5854.3098-3.41205188311090Clb=5.1m/s calibration 41% 405.10MHz Type=RS41 Details on http://radiosondy.info
G4VFL-14U27502112022-12-07 07:17:4254.311-3.41228179301020Clb=5.1m/s calibration 25% 405.10MHz Type=RS41 Details on http://radiosondy.info
G4VFL-14U27502112022-12-07 07:17:2454.3124-3.4126816730929Clb=2.4m/s calibration 7% Type=RS41 batt=2.9V Details on http://radiosondy.info